sensor_id;sensor_type;location;lat;lon;timestamp;P1;durP1;ratioP1;P2;durP2;ratioP2
54899;SDS011;40801;41.924;25.562;2023-12-22T00:01:21;24.92;;;19.05;;
54899;SDS011;40801;41.924;25.562;2023-12-22T00:03:47;16.90;;;15.13;;
54899;SDS011;40801;41.924;25.562;2023-12-22T00:06:12;19.27;;;16.52;;
54899;SDS011;40801;41.924;25.562;2023-12-22T00:08:38;17.10;;;15.38;;
54899;SDS011;40801;41.924;25.562;2023-12-22T00:11:04;20.70;;;17.48;;
54899;SDS011;40801;41.924;25.562;2023-12-22T00:13:29;18.88;;;16.85;;
54899;SDS011;40801;41.924;25.562;2023-12-22T00:15:55;19.40;;;16.33;;
54899;SDS011;40801;41.924;25.562;2023-12-22T00:18:20;18.58;;;16.05;;
54899;SDS011;40801;41.924;25.562;2023-12-22T00:20:46;17.27;;;15.23;;
54899;SDS011;40801;41.924;25.562;2023-12-22T00:23:11;16.20;;;13.88;;
54899;SDS011;40801;41.924;25.562;2023-12-22T00:25:37;18.48;;;16.48;;
54899;SDS011;40801;41.924;25.562;2023-12-22T00:28:02;20.02;;;16.58;;
54899;SDS011;40801;41.924;25.562;2023-12-22T00:30:28;31.45;;;21.10;;
54899;SDS011;40801;41.924;25.562;2023-12-22T00:32:53;29.45;;;21.73;;
54899;SDS011;40801;41.924;25.562;2023-12-22T00:35:19;23.95;;;18.42;;
54899;SDS011;40801;41.924;25.562;2023-12-22T00:37:44;28.15;;;19.80;;
54899;SDS011;40801;41.924;25.562;2023-12-22T00:40:09;22.17;;;18.02;;
54899;SDS011;40801;41.924;25.562;2023-12-22T00:42:35;25.98;;;20.27;;
54899;SDS011;40801;41.924;25.562;2023-12-22T00:45:00;23.50;;;18.27;;
54899;SDS011;40801;41.924;25.562;2023-12-22T00:47:26;20.65;;;17.40;;
54899;SDS011;40801;41.924;25.562;2023-12-22T00:49:53;23.33;;;17.80;;
54899;SDS011;40801;41.924;25.562;2023-12-22T00:52:18;24.23;;;17.63;;
54899;SDS011;40801;41.924;25.562;2023-12-22T00:54:43;24.92;;;18.45;;
54899;SDS011;40801;41.924;25.562;2023-12-22T00:57:09;19.25;;;15.80;;
54899;SDS011;40801;41.924;25.562;2023-12-22T00:59:34;33.15;;;24.95;;
54899;SDS011;40801;41.924;25.562;2023-12-22T01:01:59;36.13;;;25.58;;
54899;SDS011;40801;41.924;25.562;2023-12-22T01:04:25;19.40;;;15.80;;
54899;SDS011;40801;41.924;25.562;2023-12-22T01:06:50;18.83;;;15.68;;
54899;SDS011;40801;41.924;25.562;2023-12-22T01:09:16;21.42;;;15.82;;
54899;SDS011;40801;41.924;25.562;2023-12-22T01:11:42;32.28;;;24.42;;
54899;SDS011;40801;41.924;25.562;2023-12-22T01:14:07;45.30;;;30.38;;
54899;SDS011;40801;41.924;25.562;2023-12-22T01:16:33;27.13;;;22.20;;
54899;SDS011;40801;41.924;25.562;2023-12-22T01:18:58;22.23;;;18.63;;
54899;SDS011;40801;41.924;25.562;2023-12-22T01:21:24;80.97;;;55.78;;
54899;SDS011;40801;41.924;25.562;2023-12-22T01:23:49;33.72;;;23.60;;
54899;SDS011;40801;41.924;25.562;2023-12-22T01:26:14;27.52;;;20.23;;
54899;SDS011;40801;41.924;25.562;2023-12-22T01:28:40;26.33;;;20.20;;
54899;SDS011;40801;41.924;25.562;2023-12-22T01:31:05;25.25;;;20.15;;
54899;SDS011;40801;41.924;25.562;2023-12-22T01:33:31;31.90;;;22.48;;
54899;SDS011;40801;41.924;25.562;2023-12-22T01:35:56;29.20;;;23.08;;
54899;SDS011;40801;41.924;25.562;2023-12-22T01:38:21;32.78;;;25.45;;
54899;SDS011;40801;41.924;25.562;2023-12-22T01:40:47;33.75;;;26.15;;
54899;SDS011;40801;41.924;25.562;2023-12-22T01:43:12;26.05;;;21.02;;
54899;SDS011;40801;41.924;25.562;2023-12-22T01:45:46;40.38;;;31.13;;
54899;SDS011;40801;41.924;25.562;2023-12-22T01:48:21;32.58;;;24.48;;
54899;SDS011;40801;41.924;25.562;2023-12-22T01:50:48;36.08;;;24.98;;
54899;SDS011;40801;41.924;25.562;2023-12-22T01:53:16;39.22;;;26.70;;
54899;SDS011;40801;41.924;25.562;2023-12-22T01:55:41;34.47;;;25.67;;
54899;SDS011;40801;41.924;25.562;2023-12-22T01:58:07;33.72;;;26.60;;
54899;SDS011;40801;41.924;25.562;2023-12-22T02:00:33;27.50;;;21.15;;
54899;SDS011;40801;41.924;25.562;2023-12-22T02:02:58;26.00;;;19.75;;
54899;SDS011;40801;41.924;25.562;2023-12-22T02:05:24;27.90;;;20.55;;
54899;SDS011;40801;41.924;25.562;2023-12-22T02:07:49;26.35;;;21.25;;
54899;SDS011;40801;41.924;25.562;2023-12-22T02:10:15;25.05;;;20.63;;
54899;SDS011;40801;41.924;25.562;2023-12-22T02:12:40;27.65;;;23.88;;
54899;SDS011;40801;41.924;25.562;2023-12-22T02:15:07;24.08;;;19.50;;
54899;SDS011;40801;41.924;25.562;2023-12-22T02:20:32;25.98;;;20.08;;
54899;SDS011;40801;41.924;25.562;2023-12-22T02:22:58;25.23;;;19.77;;
54899;SDS011;40801;41.924;25.562;2023-12-22T02:25:23;21.77;;;19.38;;
54899;SDS011;40801;41.924;25.562;2023-12-22T02:30:56;21.42;;;17.30;;
54899;SDS011;40801;41.924;25.562;2023-12-22T02:33:29;28.52;;;20.23;;
54899;SDS011;40801;41.924;25.562;2023-12-22T02:35:58;21.55;;;17.00;;
54899;SDS011;40801;41.924;25.562;2023-12-22T02:38:28;24.63;;;18.42;;
54899;SDS011;40801;41.924;25.562;2023-12-22T02:40:55;19.17;;;16.52;;
54899;SDS011;40801;41.924;25.562;2023-12-22T02:43:20;24.05;;;17.83;;
54899;SDS011;40801;41.924;25.562;2023-12-22T02:45:49;25.50;;;17.05;;
54899;SDS011;40801;41.924;25.562;2023-12-22T02:48:16;19.58;;;16.80;;
54899;SDS011;40801;41.924;25.562;2023-12-22T02:50:41;23.83;;;18.92;;
54899;SDS011;40801;41.924;25.562;2023-12-22T02:53:06;23.63;;;17.83;;
54899;SDS011;40801;41.924;25.562;2023-12-22T02:55:32;17.77;;;15.05;;
54899;SDS011;40801;41.924;25.562;2023-12-22T02:57:57;21.40;;;18.05;;
54899;SDS011;40801;41.924;25.562;2023-12-22T03:00:22;20.83;;;18.63;;
54899;SDS011;40801;41.924;25.562;2023-12-22T03:02:48;21.40;;;18.77;;
54899;SDS011;40801;41.924;25.562;2023-12-22T03:05:13;21.33;;;18.58;;
54899;SDS011;40801;41.924;25.562;2023-12-22T03:07:39;21.77;;;18.52;;
54899;SDS011;40801;41.924;25.562;2023-12-22T03:10:04;19.30;;;17.30;;
54899;SDS011;40801;41.924;25.562;2023-12-22T03:12:30;22.33;;;16.65;;
54899;SDS011;40801;41.924;25.562;2023-12-22T03:14:55;30.98;;;23.10;;
54899;SDS011;40801;41.924;25.562;2023-12-22T03:17:20;43.08;;;27.70;;
54899;SDS011;40801;41.924;25.562;2023-12-22T03:19:46;35.58;;;24.65;;
54899;SDS011;40801;41.924;25.562;2023-12-22T03:22:11;28.75;;;23.75;;
54899;SDS011;40801;41.924;25.562;2023-12-22T03:24:36;18.42;;;16.15;;
54899;SDS011;40801;41.924;25.562;2023-12-22T03:27:03;22.65;;;16.65;;
54899;SDS011;40801;41.924;25.562;2023-12-22T03:29:29;20.67;;;17.20;;
54899;SDS011;40801;41.924;25.562;2023-12-22T03:31:54;20.85;;;16.00;;
54899;SDS011;40801;41.924;25.562;2023-12-22T03:34:20;18.05;;;16.02;;
54899;SDS011;40801;41.924;25.562;2023-12-22T03:36:45;19.52;;;15.48;;
54899;SDS011;40801;41.924;25.562;2023-12-22T03:39:14;18.50;;;14.50;;
54899;SDS011;40801;41.924;25.562;2023-12-22T03:41:40;18.73;;;15.77;;
54899;SDS011;40801;41.924;25.562;2023-12-22T03:44:06;22.38;;;18.65;;
54899;SDS011;40801;41.924;25.562;2023-12-22T03:46:32;21.20;;;19.00;;
54899;SDS011;40801;41.924;25.562;2023-12-22T03:48:57;23.13;;;19.55;;
54899;SDS011;40801;41.924;25.562;2023-12-22T03:51:23;24.15;;;20.80;;
54899;SDS011;40801;41.924;25.562;2023-12-22T03:53:48;49.25;;;29.13;;
54899;SDS011;40801;41.924;25.562;2023-12-22T03:56:14;44.03;;;29.90;;
54899;SDS011;40801;41.924;25.562;2023-12-22T03:58:39;26.45;;;22.13;;
54899;SDS011;40801;41.924;25.562;2023-12-22T04:01:05;25.30;;;21.52;;
54899;SDS011;40801;41.924;25.562;2023-12-22T04:03:32;28.73;;;23.20;;
54899;SDS011;40801;41.924;25.562;2023-12-22T04:06:01;27.30;;;21.77;;
54899;SDS011;40801;41.924;25.562;2023-12-22T04:08:27;23.42;;;19.67;;
54899;SDS011;40801;41.924;25.562;2023-12-22T04:10:53;24.15;;;20.73;;
54899;SDS011;40801;41.924;25.562;2023-12-22T04:13:18;18.67;;;16.63;;
54899;SDS011;40801;41.924;25.562;2023-12-22T04:15:44;21.52;;;16.35;;
54899;SDS011;40801;41.924;25.562;2023-12-22T04:18:09;15.23;;;12.43;;
54899;SDS011;40801;41.924;25.562;2023-12-22T04:20:34;18.80;;;15.48;;
54899;SDS011;40801;41.924;25.562;2023-12-22T04:23:00;37.58;;;25.13;;
54899;SDS011;40801;41.924;25.562;2023-12-22T04:25:25;23.38;;;20.20;;
54899;SDS011;40801;41.924;25.562;2023-12-22T04:27:51;16.85;;;13.75;;
54899;SDS011;40801;41.924;25.562;2023-12-22T04:30:16;18.27;;;16.60;;
54899;SDS011;40801;41.924;25.562;2023-12-22T04:32:42;17.42;;;14.68;;
54899;SDS011;40801;41.924;25.562;2023-12-22T04:35:07;19.27;;;17.17;;
54899;SDS011;40801;41.924;25.562;2023-12-22T04:37:33;15.52;;;13.90;;
54899;SDS011;40801;41.924;25.562;2023-12-22T04:39:58;16.38;;;14.40;;
54899;SDS011;40801;41.924;25.562;2023-12-22T04:42:24;17.23;;;15.38;;
54899;SDS011;40801;41.924;25.562;2023-12-22T04:44:50;18.92;;;15.88;;
54899;SDS011;40801;41.924;25.562;2023-12-22T04:47:16;16.45;;;14.75;;
54899;SDS011;40801;41.924;25.562;2023-12-22T04:49:42;20.25;;;18.15;;
54899;SDS011;40801;41.924;25.562;2023-12-22T04:52:07;21.20;;;17.20;;
54899;SDS011;40801;41.924;25.562;2023-12-22T04:54:32;25.90;;;17.30;;
54899;SDS011;40801;41.924;25.562;2023-12-22T04:56:58;19.02;;;16.70;;
54899;SDS011;40801;41.924;25.562;2023-12-22T04:59:23;17.38;;;15.70;;
54899;SDS011;40801;41.924;25.562;2023-12-22T05:01:49;16.98;;;15.18;;
54899;SDS011;40801;41.924;25.562;2023-12-22T05:04:14;23.35;;;21.00;;
54899;SDS011;40801;41.924;25.562;2023-12-22T05:06:40;24.08;;;21.60;;
54899;SDS011;40801;41.924;25.562;2023-12-22T05:09:06;24.98;;;21.00;;
54899;SDS011;40801;41.924;25.562;2023-12-22T05:11:31;21.95;;;19.52;;
54899;SDS011;40801;41.924;25.562;2023-12-22T05:13:57;16.92;;;15.18;;
54899;SDS011;40801;41.924;25.562;2023-12-22T05:16:22;15.48;;;13.88;;
54899;SDS011;40801;41.924;25.562;2023-12-22T05:18:48;17.38;;;15.57;;
54899;SDS011;40801;41.924;25.562;2023-12-22T05:21:13;18.70;;;16.60;;
54899;SDS011;40801;41.924;25.562;2023-12-22T05:23:41;17.60;;;15.85;;
54899;SDS011;40801;41.924;25.562;2023-12-22T05:26:07;26.77;;;23.02;;
54899;SDS011;40801;41.924;25.562;2023-12-22T05:28:32;26.25;;;23.45;;
54899;SDS011;40801;41.924;25.562;2023-12-22T05:30:57;28.73;;;23.95;;
54899;SDS011;40801;41.924;25.562;2023-12-22T05:33:23;37.83;;;31.08;;
54899;SDS011;40801;41.924;25.562;2023-12-22T05:35:48;34.90;;;29.38;;
54899;SDS011;40801;41.924;25.562;2023-12-22T05:38:14;35.42;;;30.92;;
54899;SDS011;40801;41.924;25.562;2023-12-22T05:40:39;38.13;;;34.10;;
54899;SDS011;40801;41.924;25.562;2023-12-22T05:43:04;76.22;;;58.60;;
54899;SDS011;40801;41.924;25.562;2023-12-22T05:45:30;50.22;;;41.33;;
54899;SDS011;40801;41.924;25.562;2023-12-22T05:47:55;54.42;;;46.95;;
54899;SDS011;40801;41.924;25.562;2023-12-22T05:50:20;54.25;;;43.22;;
54899;SDS011;40801;41.924;25.562;2023-12-22T05:52:46;40.58;;;34.25;;
54899;SDS011;40801;41.924;25.562;2023-12-22T05:55:11;47.67;;;33.47;;
54899;SDS011;40801;41.924;25.562;2023-12-22T05:57:37;48.42;;;41.03;;
54899;SDS011;40801;41.924;25.562;2023-12-22T06:00:05;49.10;;;38.13;;
54899;SDS011;40801;41.924;25.562;2023-12-22T06:02:34;59.65;;;44.47;;
54899;SDS011;40801;41.924;25.562;2023-12-22T06:05:00;65.68;;;46.38;;
54899;SDS011;40801;41.924;25.562;2023-12-22T06:07:26;56.75;;;45.03;;
54899;SDS011;40801;41.924;25.562;2023-12-22T06:09:52;65.68;;;48.20;;
54899;SDS011;40801;41.924;25.562;2023-12-22T06:12:17;80.85;;;59.83;;
54899;SDS011;40801;41.924;25.562;2023-12-22T06:14:43;61.17;;;49.83;;
54899;SDS011;40801;41.924;25.562;2023-12-22T06:17:08;69.68;;;55.30;;
54899;SDS011;40801;41.924;25.562;2023-12-22T06:19:35;69.60;;;54.90;;
54899;SDS011;40801;41.924;25.562;2023-12-22T06:22:00;63.03;;;53.20;;
54899;SDS011;40801;41.924;25.562;2023-12-22T06:24:26;64.32;;;52.45;;
54899;SDS011;40801;41.924;25.562;2023-12-22T06:26:52;67.88;;;56.78;;
54899;SDS011;40801;41.924;25.562;2023-12-22T06:29:17;71.20;;;53.60;;
54899;SDS011;40801;41.924;25.562;2023-12-22T06:31:43;62.40;;;51.67;;
54899;SDS011;40801;41.924;25.562;2023-12-22T06:34:08;64.32;;;52.55;;
54899;SDS011;40801;41.924;25.562;2023-12-22T06:36:34;73.47;;;60.03;;
54899;SDS011;40801;41.924;25.562;2023-12-22T06:38:59;76.97;;;63.78;;
54899;SDS011;40801;41.924;25.562;2023-12-22T06:41:25;77.68;;;63.92;;
54899;SDS011;40801;41.924;25.562;2023-12-22T06:43:55;67.28;;;59.88;;
54899;SDS011;40801;41.924;25.562;2023-12-22T06:46:22;70.68;;;61.47;;
54899;SDS011;40801;41.924;25.562;2023-12-22T06:48:51;70.20;;;59.25;;
54899;SDS011;40801;41.924;25.562;2023-12-22T06:53:52;102.68;;;82.53;;
54899;SDS011;40801;41.924;25.562;2023-12-22T06:56:23;134.82;;;86.07;;
54899;SDS011;40801;41.924;25.562;2023-12-22T06:58:51;106.97;;;78.55;;
54899;SDS011;40801;41.924;25.562;2023-12-22T07:01:18;95.25;;;72.88;;
54899;SDS011;40801;41.924;25.562;2023-12-22T07:03:45;59.75;;;47.67;;
54899;SDS011;40801;41.924;25.562;2023-12-22T07:06:11;58.65;;;44.90;;
54899;SDS011;40801;41.924;25.562;2023-12-22T07:08:37;68.03;;;49.88;;
54899;SDS011;40801;41.924;25.562;2023-12-22T07:11:02;59.72;;;46.47;;
54899;SDS011;40801;41.924;25.562;2023-12-22T07:13:27;58.75;;;48.17;;
54899;SDS011;40801;41.924;25.562;2023-12-22T07:15:53;68.45;;;55.42;;
54899;SDS011;40801;41.924;25.562;2023-12-22T07:18:18;60.65;;;48.92;;
54899;SDS011;40801;41.924;25.562;2023-12-22T07:20:43;84.07;;;67.82;;
54899;SDS011;40801;41.924;25.562;2023-12-22T07:23:10;83.97;;;70.32;;
54899;SDS011;40801;41.924;25.562;2023-12-22T07:25:36;85.85;;;69.75;;
54899;SDS011;40801;41.924;25.562;2023-12-22T07:28:03;86.20;;;70.82;;
54899;SDS011;40801;41.924;25.562;2023-12-22T07:30:29;102.93;;;85.80;;
54899;SDS011;40801;41.924;25.562;2023-12-22T07:32:55;88.80;;;68.43;;
54899;SDS011;40801;41.924;25.562;2023-12-22T07:35:20;89.28;;;69.70;;
54899;SDS011;40801;41.924;25.562;2023-12-22T07:37:46;80.13;;;69.25;;
54899;SDS011;40801;41.924;25.562;2023-12-22T07:40:11;88.50;;;72.95;;
54899;SDS011;40801;41.924;25.562;2023-12-22T07:42:37;97.55;;;80.32;;
54899;SDS011;40801;41.924;25.562;2023-12-22T07:45:03;79.45;;;66.65;;
54899;SDS011;40801;41.924;25.562;2023-12-22T07:47:29;117.53;;;94.15;;
54899;SDS011;40801;41.924;25.562;2023-12-22T07:49:55;173.57;;;149.68;;
54899;SDS011;40801;41.924;25.562;2023-12-22T07:52:20;121.57;;;102.03;;
54899;SDS011;40801;41.924;25.562;2023-12-22T07:54:46;92.85;;;75.63;;
54899;SDS011;40801;41.924;25.562;2023-12-22T07:57:12;104.57;;;79.88;;
54899;SDS011;40801;41.924;25.562;2023-12-22T07:59:37;106.18;;;83.93;;
54899;SDS011;40801;41.924;25.562;2023-12-22T08:02:03;141.70;;;103.03;;
54899;SDS011;40801;41.924;25.562;2023-12-22T08:04:28;140.68;;;101.40;;
54899;SDS011;40801;41.924;25.562;2023-12-22T08:06:54;186.32;;;138.25;;
54899;SDS011;40801;41.924;25.562;2023-12-22T08:09:19;170.50;;;125.90;;
54899;SDS011;40801;41.924;25.562;2023-12-22T08:11:45;178.65;;;134.27;;
54899;SDS011;40801;41.924;25.562;2023-12-22T08:14:12;184.27;;;136.20;;
54899;SDS011;40801;41.924;25.562;2023-12-22T08:16:37;180.35;;;140.02;;
54899;SDS011;40801;41.924;25.562;2023-12-22T08:19:03;173.05;;;129.05;;
54899;SDS011;40801;41.924;25.562;2023-12-22T08:21:28;159.20;;;125.00;;
54899;SDS011;40801;41.924;25.562;2023-12-22T08:23:53;166.30;;;127.05;;
54899;SDS011;40801;41.924;25.562;2023-12-22T08:26:19;148.73;;;116.05;;
54899;SDS011;40801;41.924;25.562;2023-12-22T08:28:44;135.80;;;113.82;;
54899;SDS011;40801;41.924;25.562;2023-12-22T08:31:10;116.57;;;103.50;;
54899;SDS011;40801;41.924;25.562;2023-12-22T08:33:37;121.63;;;104.18;;
54899;SDS011;40801;41.924;25.562;2023-12-22T08:36:05;84.32;;;71.00;;
54899;SDS011;40801;41.924;25.562;2023-12-22T08:38:31;83.47;;;72.80;;
54899;SDS011;40801;41.924;25.562;2023-12-22T08:40:57;87.75;;;74.70;;
54899;SDS011;40801;41.924;25.562;2023-12-22T08:43:22;86.97;;;72.68;;
54899;SDS011;40801;41.924;25.562;2023-12-22T08:45:47;110.72;;;93.60;;
54899;SDS011;40801;41.924;25.562;2023-12-22T08:48:13;80.38;;;67.60;;
54899;SDS011;40801;41.924;25.562;2023-12-22T08:50:38;91.95;;;80.78;;
54899;SDS011;40801;41.924;25.562;2023-12-22T08:53:04;114.25;;;89.72;;
54899;SDS011;40801;41.924;25.562;2023-12-22T08:55:29;100.72;;;83.15;;
54899;SDS011;40801;41.924;25.562;2023-12-22T08:57:54;91.90;;;74.95;;
54899;SDS011;40801;41.924;25.562;2023-12-22T09:00:20;104.57;;;80.20;;
54899;SDS011;40801;41.924;25.562;2023-12-22T09:02:45;105.25;;;77.40;;
54899;SDS011;40801;41.924;25.562;2023-12-22T09:05:11;97.15;;;74.93;;
54899;SDS011;40801;41.924;25.562;2023-12-22T09:07:36;87.65;;;72.55;;
54899;SDS011;40801;41.924;25.562;2023-12-22T09:10:02;85.60;;;66.13;;
54899;SDS011;40801;41.924;25.562;2023-12-22T09:12:28;90.40;;;76.90;;
54899;SDS011;40801;41.924;25.562;2023-12-22T09:14:54;97.90;;;72.60;;
54899;SDS011;40801;41.924;25.562;2023-12-22T09:17:19;93.80;;;73.05;;
54899;SDS011;40801;41.924;25.562;2023-12-22T09:19:44;91.78;;;73.15;;
54899;SDS011;40801;41.924;25.562;2023-12-22T09:22:10;94.80;;;73.13;;
54899;SDS011;40801;41.924;25.562;2023-12-22T09:24:35;99.22;;;77.53;;
54899;SDS011;40801;41.924;25.562;2023-12-22T09:27:01;99.07;;;77.70;;
54899;SDS011;40801;41.924;25.562;2023-12-22T09:29:30;94.25;;;75.30;;
54899;SDS011;40801;41.924;25.562;2023-12-22T09:32:00;113.47;;;96.38;;
54899;SDS011;40801;41.924;25.562;2023-12-22T09:34:26;141.65;;;117.68;;
54899;SDS011;40801;41.924;25.562;2023-12-22T09:36:52;138.27;;;121.40;;
54899;SDS011;40801;41.924;25.562;2023-12-22T09:39:19;142.05;;;110.20;;
54899;SDS011;40801;41.924;25.562;2023-12-22T09:41:46;149.25;;;120.28;;
54899;SDS011;40801;41.924;25.562;2023-12-22T09:44:20;183.82;;;143.85;;
54899;SDS011;40801;41.924;25.562;2023-12-22T09:46:50;161.00;;;122.22;;
54899;SDS011;40801;41.924;25.562;2023-12-22T09:49:20;180.43;;;137.23;;
54899;SDS011;40801;41.924;25.562;2023-12-22T09:51:47;150.73;;;126.40;;
54899;SDS011;40801;41.924;25.562;2023-12-22T09:54:15;146.95;;;123.35;;
54899;SDS011;40801;41.924;25.562;2023-12-22T09:56:41;143.93;;;115.45;;
54899;SDS011;40801;41.924;25.562;2023-12-22T09:59:11;138.05;;;113.95;;
54899;SDS011;40801;41.924;25.562;2023-12-22T10:01:43;119.00;;;102.80;;
54899;SDS011;40801;41.924;25.562;2023-12-22T10:04:11;122.47;;;103.93;;
54899;SDS011;40801;41.924;25.562;2023-12-22T10:06:37;122.10;;;107.25;;
54899;SDS011;40801;41.924;25.562;2023-12-22T10:09:03;124.15;;;110.68;;
54899;SDS011;40801;41.924;25.562;2023-12-22T10:11:32;156.17;;;138.47;;
54899;SDS011;40801;41.924;25.562;2023-12-22T10:13:59;133.30;;;113.57;;
54899;SDS011;40801;41.924;25.562;2023-12-22T10:16:25;112.13;;;98.53;;
54899;SDS011;40801;41.924;25.562;2023-12-22T10:18:51;124.93;;;109.03;;
54899;SDS011;40801;41.924;25.562;2023-12-22T10:21:17;126.80;;;110.75;;
54899;SDS011;40801;41.924;25.562;2023-12-22T10:23:42;121.30;;;107.25;;
54899;SDS011;40801;41.924;25.562;2023-12-22T10:26:10;120.38;;;107.07;;
54899;SDS011;40801;41.924;25.562;2023-12-22T10:28:36;129.25;;;115.25;;
54899;SDS011;40801;41.924;25.562;2023-12-22T10:31:02;90.65;;;75.90;;
54899;SDS011;40801;41.924;25.562;2023-12-22T10:33:31;83.25;;;71.40;;
54899;SDS011;40801;41.924;25.562;2023-12-22T10:35:58;56.03;;;49.90;;
54899;SDS011;40801;41.924;25.562;2023-12-22T10:38:24;104.75;;;83.97;;
54899;SDS011;40801;41.924;25.562;2023-12-22T10:40:57;65.18;;;55.67;;
54899;SDS011;40801;41.924;25.562;2023-12-22T10:43:23;74.50;;;66.40;;
54899;SDS011;40801;41.924;25.562;2023-12-22T10:45:51;77.95;;;65.63;;
54899;SDS011;40801;41.924;25.562;2023-12-22T10:48:17;83.10;;;69.30;;
54899;SDS011;40801;41.924;25.562;2023-12-22T10:50:43;135.95;;;108.97;;
54899;SDS011;40801;41.924;25.562;2023-12-22T10:53:10;78.88;;;66.63;;
54899;SDS011;40801;41.924;25.562;2023-12-22T10:55:36;96.10;;;81.50;;
54899;SDS011;40801;41.924;25.562;2023-12-22T10:58:04;104.20;;;84.32;;
54899;SDS011;40801;41.924;25.562;2023-12-22T11:00:31;382.38;;;270.88;;
54899;SDS011;40801;41.924;25.562;2023-12-22T11:03:03;112.97;;;80.28;;
54899;SDS011;40801;41.924;25.562;2023-12-22T11:05:33;62.85;;;52.60;;
54899;SDS011;40801;41.924;25.562;2023-12-22T11:08:01;56.72;;;46.50;;
54899;SDS011;40801;41.924;25.562;2023-12-22T11:10:28;51.25;;;40.65;;
54899;SDS011;40801;41.924;25.562;2023-12-22T11:12:57;50.50;;;41.70;;
54899;SDS011;40801;41.924;25.562;2023-12-22T11:15:23;61.05;;;48.22;;
54899;SDS011;40801;41.924;25.562;2023-12-22T11:17:49;64.05;;;49.45;;
54899;SDS011;40801;41.924;25.562;2023-12-22T11:20:16;73.65;;;59.22;;
54899;SDS011;40801;41.924;25.562;2023-12-22T11:22:44;74.63;;;58.67;;
54899;SDS011;40801;41.924;25.562;2023-12-22T11:25:10;72.97;;;55.35;;
54899;SDS011;40801;41.924;25.562;2023-12-22T11:27:36;75.13;;;54.90;;
54899;SDS011;40801;41.924;25.562;2023-12-22T11:30:02;75.47;;;60.17;;
54899;SDS011;40801;41.924;25.562;2023-12-22T11:32:29;65.72;;;56.90;;
54899;SDS011;40801;41.924;25.562;2023-12-22T11:34:57;66.28;;;57.63;;
54899;SDS011;40801;41.924;25.562;2023-12-22T11:37:24;72.70;;;61.15;;
54899;SDS011;40801;41.924;25.562;2023-12-22T11:39:50;65.65;;;57.70;;
54899;SDS011;40801;41.924;25.562;2023-12-22T11:42:17;70.35;;;59.50;;
54899;SDS011;40801;41.924;25.562;2023-12-22T11:44:46;71.97;;;58.30;;
54899;SDS011;40801;41.924;25.562;2023-12-22T11:47:12;77.13;;;63.45;;
54899;SDS011;40801;41.924;25.562;2023-12-22T11:49:39;93.82;;;77.72;;
54899;SDS011;40801;41.924;25.562;2023-12-22T11:52:09;98.70;;;88.00;;
54899;SDS011;40801;41.924;25.562;2023-12-22T11:54:57;101.10;;;86.93;;
54899;SDS011;40801;41.924;25.562;2023-12-22T12:02:36;91.68;;;80.07;;
54899;SDS011;40801;41.924;25.562;2023-12-22T12:05:06;93.88;;;80.82;;
54899;SDS011;40801;41.924;25.562;2023-12-22T12:10:12;90.55;;;79.00;;
54899;SDS011;40801;41.924;25.562;2023-12-22T12:13:10;96.38;;;84.03;;
54899;SDS011;40801;41.924;25.562;2023-12-22T12:15:37;91.68;;;80.82;;
54899;SDS011;40801;41.924;25.562;2023-12-22T12:18:04;95.32;;;85.18;;
54899;SDS011;40801;41.924;25.562;2023-12-22T12:20:31;108.97;;;95.32;;
54899;SDS011;40801;41.924;25.562;2023-12-22T12:22:57;97.03;;;85.03;;
54899;SDS011;40801;41.924;25.562;2023-12-22T12:25:23;95.60;;;84.32;;
54899;SDS011;40801;41.924;25.562;2023-12-22T12:30:28;124.82;;;107.82;;
54899;SDS011;40801;41.924;25.562;2023-12-22T12:32:53;201.35;;;173.88;;
54899;SDS011;40801;41.924;25.562;2023-12-22T12:35:19;158.30;;;140.07;;
54899;SDS011;40801;41.924;25.562;2023-12-22T12:37:47;88.45;;;78.82;;
54899;SDS011;40801;41.924;25.562;2023-12-22T12:40:12;97.20;;;83.75;;
54899;SDS011;40801;41.924;25.562;2023-12-22T12:42:42;121.43;;;99.78;;
54899;SDS011;40801;41.924;25.562;2023-12-22T12:45:09;128.55;;;95.95;;
54899;SDS011;40801;41.924;25.562;2023-12-22T12:47:34;122.05;;;98.55;;
54899;SDS011;40801;41.924;25.562;2023-12-22T12:50:00;117.55;;;96.47;;
54899;SDS011;40801;41.924;25.562;2023-12-22T12:52:26;113.65;;;101.15;;
54899;SDS011;40801;41.924;25.562;2023-12-22T12:54:52;95.68;;;85.50;;
54899;SDS011;40801;41.924;25.562;2023-12-22T12:57:18;75.50;;;64.82;;
54899;SDS011;40801;41.924;25.562;2023-12-22T12:59:50;100.35;;;83.72;;
54899;SDS011;40801;41.924;25.562;2023-12-22T13:02:16;77.03;;;68.07;;
54899;SDS011;40801;41.924;25.562;2023-12-22T13:04:42;68.63;;;59.00;;
54899;SDS011;40801;41.924;25.562;2023-12-22T13:07:08;64.80;;;56.10;;
54899;SDS011;40801;41.924;25.562;2023-12-22T13:09:35;52.90;;;47.20;;
54899;SDS011;40801;41.924;25.562;2023-12-22T13:12:01;65.03;;;54.10;;
54899;SDS011;40801;41.924;25.562;2023-12-22T13:14:28;61.72;;;51.72;;
54899;SDS011;40801;41.924;25.562;2023-12-22T13:16:53;66.82;;;53.60;;
54899;SDS011;40801;41.924;25.562;2023-12-22T13:19:21;30.77;;;27.17;;
54899;SDS011;40801;41.924;25.562;2023-12-22T13:21:49;33.05;;;29.63;;
54899;SDS011;40801;41.924;25.562;2023-12-22T13:24:15;38.45;;;33.92;;
54899;SDS011;40801;41.924;25.562;2023-12-22T13:26:42;35.55;;;31.85;;
54899;SDS011;40801;41.924;25.562;2023-12-22T13:29:08;41.42;;;37.10;;
54899;SDS011;40801;41.924;25.562;2023-12-22T13:31:41;42.08;;;37.55;;
54899;SDS011;40801;41.924;25.562;2023-12-22T13:36:36;127.68;;;93.07;;
54899;SDS011;40801;41.924;25.562;2023-12-22T13:39:05;65.72;;;55.20;;
54899;SDS011;40801;41.924;25.562;2023-12-22T13:41:32;57.70;;;51.35;;
54899;SDS011;40801;41.924;25.562;2023-12-22T13:44:02;73.20;;;57.45;;
54899;SDS011;40801;41.924;25.562;2023-12-22T13:48:54;63.38;;;53.00;;
54899;SDS011;40801;41.924;25.562;2023-12-22T13:51:19;71.75;;;58.53;;
54899;SDS011;40801;41.924;25.562;2023-12-22T13:53:48;81.90;;;62.70;;
54899;SDS011;40801;41.924;25.562;2023-12-22T13:56:14;82.25;;;65.10;;
54899;SDS011;40801;41.924;25.562;2023-12-22T13:58:46;110.68;;;87.78;;
54899;SDS011;40801;41.924;25.562;2023-12-22T14:01:15;109.60;;;78.68;;
54899;SDS011;40801;41.924;25.562;2023-12-22T14:03:44;131.18;;;83.63;;
54899;SDS011;40801;41.924;25.562;2023-12-22T14:06:10;90.30;;;77.05;;
54899;SDS011;40801;41.924;25.562;2023-12-22T14:08:39;90.57;;;76.95;;
54899;SDS011;40801;41.924;25.562;2023-12-22T14:11:05;86.80;;;74.72;;
54899;SDS011;40801;41.924;25.562;2023-12-22T14:13:31;92.97;;;73.55;;
54899;SDS011;40801;41.924;25.562;2023-12-22T14:15:56;85.65;;;73.78;;
54899;SDS011;40801;41.924;25.562;2023-12-22T14:18:22;99.82;;;74.10;;
54899;SDS011;40801;41.924;25.562;2023-12-22T14:20:47;81.55;;;71.03;;
54899;SDS011;40801;41.924;25.562;2023-12-22T14:23:13;112.32;;;80.03;;